Terminal Aerodrome Forecast
Issued by NWS

Home | Current Version | Previous Version | Text Only | Print | Product List | Glossary On
Versions: 1 2 3 4 5 6 7 8 9 10 11 12 13
000
FTUS45 KRIW 052324
TAFBPI
TAF
KBPI 052324Z 0600/0624 33011KT P6SM SKC
     FM061000 VRB06KT P6SM SKC
     FM062100 30008KT P6SM SCT030 BKN050=

USA.gov is the U.S. government's official web portal to all federal, state and local government web resources and services.